Friday, February 23, 2018, 3:15 PM EST
Back to Local

KBVY, Beverly Municipal Airport

Location: Danvers, MA, United States Lat: 42.583
Local Time: 3:15 PM EST (20:15 GMT) Lon: -70.917
Time Zone: US/Eastern Elev: 108 ft

Show me the last for .
Show Decoded

2018-02-23 14:53 METAR KBVY 231953Z 15009KT 10SM BKN060 OVC070 03/M01 A3048 RMK AO2 RAB20E53
                 SLP318 P0001 T00331006 =
2018-02-23 13:53 METAR KBVY 231853Z 13011KT 10SM OVC085 04/M03 A3052 RMK AO2 SLP332 T00391033 =
2018-02-23 12:53 METAR KBVY 231753Z 14010G15KT 10SM OVC110 04/M03 A3057 RMK AO2 SLP350 I6000
                 T00441028 10056 21039 58029 =
2018-02-23 11:53 METAR KBVY 231653Z 13011KT 10SM FEW120 04/M03 A3061 RMK AO2 SLP362 T00391033 =
2018-02-23 10:53 METAR KBVY 231553Z 11009KT 10SM CLR 04/M04 A3063 RMK AO2 SLP371 T00441039 =
2018-02-23 09:53 METAR KBVY 231453Z 12009KT 10SM CLR 03/M02 A3066 RMK AO2 SLP379 I3000 T00331022
                 58012 =
2018-02-23 08:53 METAR KBVY 231353Z 00000KT 10SM SCT200 00/M01 A3068 RMK AO2 SLP387 T00001011 =
2018-02-23 07:53 METAR KBVY 231253Z 00000KT 10SM CLR M02/M02 A3069 RMK AO2 SLP390 I1000 T10221022
                 =
2018-02-23 06:59 METAR KBVY 231159Z 00000KT 10SM CLR M04/M05 A3069 RMK AO2 T10391050 =
2018-02-23 06:56 METAR KBVY 231156Z 00000KT 1 3/4SM CLR M04/M04 A3069 RMK AO2 T10391044 =
2018-02-23 06:53 METAR KBVY 231153Z 00000KT 10SM CLR M04/M04 A3069 RMK AO2 SLP390 70009 I6001
                 T10391039 11017 21039 52001 =
2018-02-23 05:53 METAR KBVY 231053Z AUTO 36003KT 8SM CLR M03/M04 A3069 RMK AO2 SLP390 I1000
                 T10331039 =
2018-02-23 04:53 METAR KBVY 230953Z AUTO 00000KT 8SM CLR M03/M03 A3069 RMK AO2 SLP388 I1000
                 T10281033 =
2018-02-23 03:53 METAR KBVY 230853Z AUTO 03003KT 7SM FEW080 M02/M03 A3069 RMK AO2 SLP389 I1000
                 I3001 T10221028 50001 =
2018-02-23 02:53 METAR KBVY 230753Z AUTO 34004KT 8SM BKN075 M02/M03 A3071 RMK AO2 SLP396
                 T10221028 =
2018-02-23 01:53 METAR KBVY 230653Z AUTO 00000KT 5SM BR CLR M03/M03 A3068 RMK AO2 SLP387 I1001
                 T10281028 =
2018-02-23 01:36 METAR KBVY 230636Z AUTO 34004KT 5SM BR CLR M03/M03 A3068 RMK AO2 I1001 T10281033
                 =
2018-02-23 01:19 METAR KBVY 230619Z AUTO 00000KT 2 1/2SM BR CLR M02/M02 A3068 RMK AO2 I1000
                 T10171022 =
2018-02-23 01:16 METAR KBVY 230616Z AUTO 00000KT 1SM BR VV002 M02/M03 A3067 RMK AO2 I1000
                 T10171028 =
2018-02-23 00:53 METAR KBVY 230553Z AUTO 00000KT 1/4SM FZFG VV002 M02/M03 A3068 RMK AO2 SLP388
                 I1001 I6001 T10221028 10006 21028 58003 =
2018-02-23 00:38 METAR KBVY 230538Z AUTO 00000KT 1/4SM FZFG CLR M02/M03 A3068 RMK AO2 I1001
                 T10221033 =
2018-02-23 00:27 METAR KBVY 230527Z AUTO 00000KT 3/4SM BR CLR M02/M02 A3068 RMK AO2 I1000
                 T10221022 =
2018-02-22 23:53 METAR KBVY 230453Z AUTO 33005KT 8SM CLR M01/M02 A3069 RMK AO2 SLP391 T10111017
                 401171011 =
2018-02-22 23:37 METAR KBVY 230437Z AUTO 31004KT 9SM FEW017 M01/M02 A3069 RMK AO2 T10061017 =
2018-02-22 22:53 METAR KBVY 230353Z AUTO 33003KT 10SM FEW008 BKN019 M01/M02 A3069 RMK AO2 SLP389
                 T10061017 =
2018-02-22 22:49 METAR KBVY 230349Z AUTO 32004KT 10SM FEW008 BKN019 M01/M02 A3069 RMK AO2 =
2018-02-22 22:02 METAR KBVY 230302Z AUTO 34004KT 8SM BKN009 00/M01 A3069 RMK AO2 T00001006 =
2018-02-22 21:53 METAR KBVY 230253Z AUTO 30003KT 6SM BR OVC010 00/M01 A3069 RMK AO2 SLP388
                 T00001006 53011 =
2018-02-22 20:53 METAR KBVY 230153Z AUTO 00000KT 9SM OVC013 01/00 A3068 RMK AO2 SLP386 T00060000
                 =
2018-02-22 20:43 METAR KBVY 230143Z AUTO 33003KT 10SM OVC014 01/00 A3068 RMK AO2 T00060000 =
2018-02-22 19:53 METAR KBVY 230053Z 00000KT 9SM SCT007 OVC015 01/00 A3065 RMK AO2 SLP377 LAST
                 T00060000 =
2018-02-22 19:03 METAR KBVY 230003Z 00000KT 10SM BKN005 OVC017 01/00 A3066 RMK AO2 T00060000 =
2018-02-22 18:53 METAR KBVY 222353Z 00000KT 8SM SCT006 OVC016 00/00 A3065 RMK AO2 SNE47 SLP377
                 P0001 60009 T00000000 10039 20000 50003 =
2018-02-22 18:39 METAR KBVY 222339Z 00000KT 4SM -SN BR FEW006 OVC018 01/00 A3067 RMK AO2 P0001
                 T00060000 =
2018-02-22 18:28 METAR KBVY 222328Z 00000KT 4SM -SN BR OVC019 01/00 A3067 RMK AO2 P0001 T00060000
                 =
2018-02-22 18:09 METAR KBVY 222309Z 00000KT 1 1/2SM -SN BR FEW005 OVC019 01/00 A3067 RMK AO2
                 P0001 T00060000 =
2018-02-22 17:57 METAR KBVY 222257Z 00000KT 2SM -SN BR SCT005 OVC017 01/00 A3068 RMK AO2 P0000
                 T00060000 =
2018-02-22 17:53 METAR KBVY 222253Z 00000KT 1 1/2SM -SN BR SCT005 BKN014 OVC019 01/00 A3068 RMK
                 AO2 SLP386 P0003 T00060000 =
2018-02-22 17:17 METAR KBVY 222217Z 00000KT 1SM -SN BR BKN005 OVC015 01/00 A3067 RMK AO2 P0001
                 T00060000 =
2018-02-22 17:03 METAR KBVY 222203Z 00000KT 1/2SM SN FG SCT004 OVC015 01/00 A3067 RMK AO2 P0001
                 T00060000 =
2018-02-22 16:53 METAR KBVY 222153Z 00000KT 1/2SM SN FG SCT004 OVC014 01/00 A3067 RMK AO2 SLP382
                 P0004 T00060000 =
2018-02-22 16:35 METAR KBVY 222135Z 00000KT 3/4SM -SN BR FEW005 OVC014 01/00 A3066 RMK AO2 P0003
                 T00060000 =
2018-02-22 16:18 METAR KBVY 222118Z 00000KT 1/2SM SN FG VV014 01/M01 A3066 RMK AO2 P0002
                 T00061006 =
2018-02-22 16:06 METAR KBVY 222106Z 00000KT 1/2SM SN FG VV017 01/M01 A3065 RMK AO2 P0001
                 T00061006 =
2018-02-22 15:53 METAR KBVY 222053Z 02003KT 1SM -SN BR OVC021 01/M01 A3065 RMK AO2 SLP374 P0001
                 60001 T00061011 53003 =
2018-02-22 15:43 METAR KBVY 222043Z 35003KT 3/4SM -SN OVC021 01/M02 A3065 RMK AO2 P0001 T00111017
                 =
2018-02-22 15:32 METAR KBVY 222032Z 01003KT 1 1/4SM -SN OVC027 01/M02 A3064 RMK AO2 P0000
                 T00111022 =
2018-02-22 15:21 METAR KBVY 222021Z 02004KT 1 3/4SM -SN BKN033 OVC041 02/M03 A3063 RMK AO2 P0000
                 T00171028 =

Support USWX by starting your Amazon purchase here.